Time;durP1;ratioP1;P1;durP2;ratioP2;P2;SDS_P1;SDS_P2;PMS_P1;PMS_P2;Temp;Humidity;BMP_temperature;BMP_pressure;BME280_temperature;BME280_humidity;BME280_pressure;Samples;Min_cycle;Max_cycle;Signal;HPM_P1;HPM_P2
2022/04/03 00:02:31;;;;;;;3.05;1.50;;;;;;;;;;5008175;28;20068;-65
2022/04/03 00:05:02;;;;;;;2.70;1.55;;;;;;;;;;5008145;28;20061;-65
2022/04/03 00:07:34;;;;;;;1.92;0.95;;;;;;;;;;4975698;28;20425;-65
2022/04/03 00:10:05;;;;;;;1.98;0.95;;;;;;;;;;5007976;28;20062;-65
2022/04/03 00:12:37;;;;;;;4.80;1.20;;;;;;;;;;5007086;28;20070;-65
2022/04/03 00:15:09;;;;;;;3.03;1.10;;;;;;;;;;4959559;28;20080;-66
2022/04/03 00:17:42;;;;;;;3.10;1.17;;;;;;;;;;5007269;28;20054;-65
2022/04/03 00:20:14;;;;;;;2.28;1.20;;;;;;;;;;5016040;28;20067;-64
2022/04/03 00:22:48;;;;;;;2.10;1.13;;;;;;;;;;5029306;28;20049;-65
2022/04/03 00:25:20;;;;;;;3.80;1.50;;;;;;;;;;4966221;28;20125;-64
2022/04/03 00:27:51;;;;;;;2.00;1.50;;;;;;;;;;5031164;28;20046;-64
2022/04/03 00:30:42;;;;;;;3.25;1.10;;;;;;;;;;4991925;28;20062;-65
2022/04/03 00:33:13;;;;;;;3.42;1.30;;;;;;;;;;4952870;29;20062;-65
2022/04/03 00:35:44;;;;;;;2.67;2.03;;;;;;;;;;4953214;29;20046;-65
2022/04/03 00:38:16;;;;;;;3.90;1.60;;;;;;;;;;4934007;29;20047;-65
2022/04/03 00:40:48;;;;;;;8.63;2.67;;;;;;;;;;4933678;29;20059;-64
2022/04/03 00:43:19;;;;;;;5.20;1.88;;;;;;;;;;4931183;29;20068;-65
2022/04/03 00:45:53;;;;;;;;;;;;;;;;;;4932980;29;20814;-64
2022/04/03 00:48:24;;;;;;;5.93;2.20;;;;;;;;;;4902399;29;19922;-65
2022/04/03 00:51:15;;;;;;;4.75;2.10;;;;;;;;;;4887029;29;20066;-65
2022/04/03 00:53:45;;;;;;;5.32;1.98;;;;;;;;;;4895274;29;20067;-65
2022/04/03 00:56:16;;;;;;;5.00;2.35;;;;;;;;;;4896050;29;20653;-63
2022/04/03 00:58:49;;;;;;;7.25;2.03;;;;;;;;;;4879089;29;20061;-65
2022/04/03 01:01:22;;;;;;;4.63;1.83;;;;;;;;;;4909514;29;20060;-64
2022/04/03 01:03:53;;;;;;;2.95;1.58;;;;;;;;;;4914702;29;20064;-65
2022/04/03 01:07:04;;;;;;;6.10;1.00;;;;;;;;;;4914690;29;20402;-65
2022/04/03 01:09:36;;;;;;;4.47;1.42;;;;;;;;;;4932860;29;20692;-65
2022/04/03 01:12:08;;;;;;;4.90;1.30;;;;;;;;;;4952286;29;20165;-64
2022/04/03 01:14:40;;;;;;;3.70;1.52;;;;;;;;;;4952832;29;20566;-64
2022/04/03 01:17:13;;;;;;;3.05;1.35;;;;;;;;;;4955894;28;20062;-64
2022/04/03 01:19:45;;;;;;;2.78;1.50;;;;;;;;;;4972280;28;20062;-64
2022/04/03 01:22:16;;;;;;;2.00;1.20;;;;;;;;;;4971679;28;20546;-65
2022/04/03 01:24:48;;;;;;;3.58;1.45;;;;;;;;;;4923604;28;20085;-64
2022/04/03 01:27:21;;;;;;;3.78;1.10;;;;;;;;;;4971453;28;20062;-64
2022/04/03 01:29:52;;;;;;;2.38;1.52;;;;;;;;;;4957905;28;20089;-64
2022/04/03 01:32:24;;;;;;;3.22;1.98;;;;;;;;;;4921640;29;20055;-65
2022/04/03 01:34:54;;;;;;;2.00;1.20;;;;;;;;;;4904837;29;20043;-65
2022/04/03 01:37:25;;;;;;;4.70;1.67;;;;;;;;;;4952499;29;20055;-65
2022/04/03 01:39:56;;;;;;;4.75;1.60;;;;;;;;;;4951922;29;20055;-64
2022/04/03 01:42:27;;;;;;;2.72;1.40;;;;;;;;;;4931068;29;20067;-64
2022/04/03 01:45:01;;;;;;;2.85;1.38;;;;;;;;;;4932259;29;20060;-65
2022/04/03 01:47:52;;;;;;;5.25;1.42;;;;;;;;;;4930792;29;20717;-65
2022/04/03 01:50:23;;;;;;;3.53;1.48;;;;;;;;;;4932627;29;20070;-64
2022/04/03 01:52:54;;;;;;;3.95;1.60;;;;;;;;;;4901028;29;20055;-65
2022/04/03 01:55:25;;;;;;;3.38;1.75;;;;;;;;;;4932883;29;20103;-64
2022/04/03 01:57:56;;;;;;;2.42;1.35;;;;;;;;;;4947483;29;20059;-64
2022/04/03 02:00:27;;;;;;;2.63;1.52;;;;;;;;;;4942251;29;20055;-64
2022/04/03 02:02:58;;;;;;;3.20;1.85;;;;;;;;;;4967075;28;20054;-65
2022/04/03 02:05:29;;;;;;;5.30;1.50;;;;;;;;;;4919602;29;20055;-64
2022/04/03 02:07:59;;;;;;;5.32;1.73;;;;;;;;;;4951317;29;20063;-65
2022/04/03 02:10:30;;;;;;;4.93;2.05;;;;;;;;;;4951239;28;20059;-65
2022/04/03 02:13:02;;;;;;;3.40;1.33;;;;;;;;;;4951084;28;20471;-65
2022/04/03 02:15:32;;;;;;;5.20;1.60;;;;;;;;;;4969952;28;20066;-64
2022/04/03 02:18:03;;;;;;;3.38;1.65;;;;;;;;;;4938574;28;20066;-64
2022/04/03 02:20:34;;;;;;;3.17;1.48;;;;;;;;;;4954331;28;20062;-65
2022/04/03 02:23:05;;;;;;;3.40;1.80;;;;;;;;;;4970421;28;20085;-64
2022/04/03 02:25:36;;;;;;;3.50;1.52;;;;;;;;;;4980525;28;20066;-65
2022/04/03 02:28:09;;;;;;;2.80;1.40;;;;;;;;;;4990080;28;20509;-65
2022/04/03 02:30:40;;;;;;;4.40;2.05;;;;;;;;;;5014059;28;20457;-65
2022/04/03 02:33:10;;;;;;;3.30;2.08;;;;;;;;;;5052547;28;20049;-65
2022/04/03 02:35:42;;;;;;;4.25;1.55;;;;;;;;;;5048754;28;20048;-65
2022/04/03 02:38:18;;;;;;;6.25;2.22;;;;;;;;;;5048911;28;20061;-65
2022/04/03 02:40:50;;;;;;;4.10;2.03;;;;;;;;;;5047597;28;20053;-65
2022/04/03 02:43:20;;;;;;;5.05;2.22;;;;;;;;;;5048972;28;20048;-65
2022/04/03 02:45:51;;;;;;;5.50;2.40;;;;;;;;;;5046976;28;20060;-64
2022/04/03 02:48:23;;;;;;;6.95;2.05;;;;;;;;;;5032777;28;20084;-64
2022/04/03 02:50:53;;;;;;;5.03;2.55;;;;;;;;;;4980447;28;20626;-64
2022/04/03 02:53:24;;;;;;;5.43;2.58;;;;;;;;;;5011372;28;20061;-64
2022/04/03 02:55:54;;;;;;;4.97;2.20;;;;;;;;;;5028834;28;20080;-64
2022/04/03 02:58:25;;;;;;;3.95;1.95;;;;;;;;;;5040057;28;20077;-64
2022/04/03 03:00:56;;;;;;;6.47;2.50;;;;;;;;;;5047889;28;20615;-64
2022/04/03 03:03:26;;;;;;;6.10;2.67;;;;;;;;;;5047983;28;20064;-64
2022/04/03 03:05:56;;;;;;;4.28;1.65;;;;;;;;;;5048646;28;20448;-64
2022/04/03 03:08:27;;;;;;;4.20;2.40;;;;;;;;;;5048348;28;20048;-64
2022/04/03 03:10:58;;;;;;;6.55;2.17;;;;;;;;;;5048426;28;20052;-64
2022/04/03 03:13:29;;;;;;;6.20;2.20;;;;;;;;;;5049648;28;20525;-64
2022/04/03 03:15:59;;;;;;;6.57;1.98;;;;;;;;;;5050213;28;20396;-64
2022/04/03 03:18:30;;;;;;;4.90;2.42;;;;;;;;;;5015486;28;20068;-64
2022/04/03 03:21:01;;;;;;;4.90;2.28;;;;;;;;;;5050515;28;20049;-65
2022/04/03 03:23:32;;;;;;;4.47;2.47;;;;;;;;;;5015101;28;20420;-64
2022/04/03 03:26:02;;;;;;;5.65;3.00;;;;;;;;;;5048527;28;20761;-63
2022/04/03 03:28:34;;;;;;;4.68;2.28;;;;;;;;;;5031247;28;20836;-64
2022/04/03 03:31:05;;;;;;;3.30;1.52;;;;;;;;;;5047998;28;20061;-63
2022/04/03 03:33:36;;;;;;;3.58;2.10;;;;;;;;;;5048132;28;20519;-65
2022/04/03 03:36:09;;;;;;;4.65;2.40;;;;;;;;;;5047648;28;20049;-64
2022/04/03 03:38:40;;;;;;;3.88;1.92;;;;;;;;;;5047504;28;20080;-64
2022/04/03 03:41:11;;;;;;;4.07;1.85;;;;;;;;;;4998224;28;20057;-64
2022/04/03 03:43:43;;;;;;;4.63;2.22;;;;;;;;;;4998123;28;20056;-65
2022/04/03 03:46:14;;;;;;;9.57;2.13;;;;;;;;;;5047349;28;20049;-65
2022/04/03 03:48:45;;;;;;;6.22;2.00;;;;;;;;;;4998389;28;20048;-64
2022/04/03 03:51:15;;;;;;;7.22;2.30;;;;;;;;;;5027015;28;20533;-65
2022/04/03 03:53:46;;;;;;;3.58;2.08;;;;;;;;;;4988171;28;20054;-65
2022/04/03 03:56:16;;;;;;;4.53;2.00;;;;;;;;;;4987799;28;20776;-64
2022/04/03 03:58:48;;;;;;;17.45;2.50;;;;;;;;;;4987694;28;20062;-64
2022/04/03 04:01:19;;;;;;;5.40;1.90;;;;;;;;;;4988349;28;20557;-64
2022/04/03 04:03:49;;;;;;;5.32;2.05;;;;;;;;;;4999565;28;20064;-64
2022/04/03 04:06:20;;;;;;;9.70;2.03;;;;;;;;;;4974866;28;20060;-64
2022/04/03 04:08:50;;;;;;;9.40;2.30;;;;;;;;;;5007796;28;20054;-63
2022/04/03 04:11:21;;;;;;;4.80;1.92;;;;;;;;;;5007686;28;20615;-64
2022/04/03 04:13:52;;;;;;;8.43;2.00;;;;;;;;;;4991159;28;20046;-63
2022/04/03 04:16:22;;;;;;;10.82;1.60;;;;;;;;;;5007680;28;20422;-63
2022/04/03 04:18:53;;;;;;;6.53;2.20;;;;;;;;;;5007650;28;20635;-63
2022/04/03 04:21:23;;;;;;;6.95;2.10;;;;;;;;;;5006995;28;20053;-63
2022/04/03 04:23:54;;;;;;;7.47;2.00;;;;;;;;;;5007241;28;20134;-63
2022/04/03 04:26:25;;;;;;;13.57;1.95;;;;;;;;;;4991265;28;20066;-63
2022/04/03 04:28:56;;;;;;;9.05;1.95;;;;;;;;;;5016927;28;20592;-63
2022/04/03 04:31:26;;;;;;;4.43;2.08;;;;;;;;;;5017370;28;20069;-63
2022/04/03 04:33:58;;;;;;;4.47;1.50;;;;;;;;;;5007518;28;20061;-63
2022/04/03 04:36:28;;;;;;;5.07;2.00;;;;;;;;;;4990823;28;20060;-63
2022/04/03 04:39:01;;;;;;;4.20;1.73;;;;;;;;;;5007392;28;20054;-63
2022/04/03 04:41:32;;;;;;;3.53;1.65;;;;;;;;;;4963107;28;20722;-63
2022/04/03 04:44:02;;;;;;;6.90;1.85;;;;;;;;;;4967513;28;20046;-63
2022/04/03 04:46:33;;;;;;;3.72;1.23;;;;;;;;;;4986772;28;20442;-63
2022/04/03 04:49:04;;;;;;;6.57;2.35;;;;;;;;;;4987996;28;20070;-63
2022/04/03 04:51:34;;;;;;;4.70;1.80;;;;;;;;;;4975382;28;20077;-64
2022/04/03 04:54:05;;;;;;;6.20;2.10;;;;;;;;;;5006776;28;20515;-63
2022/04/03 04:56:36;;;;;;;3.97;1.75;;;;;;;;;;4991208;28;20069;-63
2022/04/03 04:59:07;;;;;;;4.72;2.28;;;;;;;;;;4974329;28;20050;-64
2022/04/03 05:01:38;;;;;;;3.10;1.33;;;;;;;;;;5007281;28;20069;-63
2022/04/03 05:04:09;;;;;;;3.70;1.95;;;;;;;;;;5006893;28;20061;-64
2022/04/03 05:06:40;;;;;;;3.63;1.70;;;;;;;;;;4974149;28;20058;-64
2022/04/03 05:09:11;;;;;;;3.53;2.05;;;;;;;;;;4993414;28;20050;-64
2022/04/03 05:11:42;;;;;;;3.60;2.35;;;;;;;;;;4994979;28;20062;-64
2022/04/03 05:14:13;;;;;;;3.55;1.90;;;;;;;;;;5010097;28;20054;-64
2022/04/03 05:16:44;;;;;;;3.83;2.13;;;;;;;;;;4994824;28;20042;-65
2022/04/03 05:19:15;;;;;;;3.70;1.83;;;;;;;;;;5010999;28;20080;-64
2022/04/03 05:21:46;;;;;;;5.40;2.00;;;;;;;;;;5031975;28;20072;-64
2022/04/03 05:24:17;;;;;;;4.00;1.75;;;;;;;;;;5049879;28;20053;-64
2022/04/03 05:26:48;;;;;;;4.40;1.70;;;;;;;;;;5050416;28;20053;-64
2022/04/03 05:29:19;;;;;;;2.72;1.40;;;;;;;;;;5016543;28;20060;-64
2022/04/03 05:31:49;;;;;;;2.63;1.40;;;;;;;;;;5040796;28;20421;-64
2022/04/03 05:34:20;;;;;;;5.40;1.92;;;;;;;;;;5049958;28;20068;-63
2022/04/03 05:36:53;;;;;;;4.10;2.10;;;;;;;;;;5049930;28;20159;-67
2022/04/03 05:39:27;;;;;;;4.97;2.00;;;;;;;;;;5017028;28;20061;-65
2022/04/03 05:41:58;;;;;;;4.78;1.70;;;;;;;;;;5049362;28;20065;-65
2022/04/03 05:44:28;;;;;;;4.60;2.10;;;;;;;;;;5049260;28;20048;-66
2022/04/03 05:46:59;;;;;;;3.83;1.85;;;;;;;;;;5049326;28;20052;-65
2022/04/03 05:49:29;;;;;;;4.88;2.30;;;;;;;;;;5049372;28;20061;-66
2022/04/03 05:52:00;;;;;;;4.15;1.92;;;;;;;;;;5016547;28;20052;-65
2022/04/03 05:54:31;;;;;;;4.68;2.50;;;;;;;;;;5016787;28;20084;-65
2022/04/03 05:57:01;;;;;;;3.80;2.38;;;;;;;;;;5049701;28;20580;-65
2022/04/03 05:59:32;;;;;;;3.80;2.00;;;;;;;;;;5032582;28;20567;-65
2022/04/03 06:02:08;;;;;;;4.82;1.60;;;;;;;;;;5009734;28;20465;-65
2022/04/03 06:04:38;;;;;;;4.88;2.15;;;;;;;;;;5009423;28;20066;-65
2022/04/03 06:07:09;;;;;;;5.10;2.08;;;;;;;;;;4990326;28;20051;-65
2022/04/03 06:09:40;;;;;;;4.75;2.17;;;;;;;;;;4969484;28;20529;-65
2022/04/03 06:12:11;;;;;;;6.22;2.60;;;;;;;;;;5009467;28;20104;-65
2022/04/03 06:14:42;;;;;;;3.30;1.88;;;;;;;;;;5009587;28;20058;-66
2022/04/03 06:17:12;;;;;;;5.65;2.53;;;;;;;;;;5009729;28;20045;-65
2022/04/03 06:19:42;;;;;;;5.53;2.67;;;;;;;;;;5008362;28;20058;-66
2022/04/03 06:22:13;;;;;;;5.15;2.38;;;;;;;;;;4977341;28;20057;-66
2022/04/03 06:24:43;;;;;;;5.25;2.75;;;;;;;;;;4989672;28;20062;-66
2022/04/03 06:27:14;;;;;;;4.70;2.60;;;;;;;;;;4989709;28;20221;-66
2022/04/03 06:29:45;;;;;;;4.15;2.30;;;;;;;;;;4989868;28;20061;-65
2022/04/03 06:32:16;;;;;;;7.22;2.28;;;;;;;;;;4989791;28;20054;-66
2022/04/03 06:34:47;;;;;;;4.70;2.05;;;;;;;;;;4973112;28;20062;-65
2022/04/03 06:37:18;;;;;;;5.20;2.47;;;;;;;;;;4989674;28;20062;-65
2022/04/03 06:39:48;;;;;;;4.28;2.92;;;;;;;;;;4993733;28;20433;-65
2022/04/03 06:42:18;;;;;;;4.93;2.58;;;;;;;;;;5027974;28;20050;-65
2022/04/03 06:44:49;;;;;;;5.03;2.70;;;;;;;;;;5028879;28;20068;-66
2022/04/03 06:47:20;;;;;;;5.53;2.90;;;;;;;;;;5028499;28;20056;-65
2022/04/03 06:49:51;;;;;;;9.73;2.58;;;;;;;;;;5011647;28;20516;-66
2022/04/03 06:52:21;;;;;;;5.07;2.10;;;;;;;;;;5028699;28;20659;-66
2022/04/03 06:54:55;;;;;;;4.65;2.00;;;;;;;;;;5028825;28;20696;-66
2022/04/03 06:57:26;;;;;;;6.25;2.63;;;;;;;;;;5028574;28;20521;-66
2022/04/03 06:59:56;;;;;;;4.70;2.40;;;;;;;;;;5028804;28;20068;-66
2022/04/03 07:02:29;;;;;;;4.88;2.92;;;;;;;;;;4997576;28;20076;-66
2022/04/03 07:05:00;;;;;;;4.53;2.10;;;;;;;;;;5050513;28;20428;-66
2022/04/03 07:07:31;;;;;;;4.68;2.63;;;;;;;;;;5050948;28;20374;-66
2022/04/03 07:10:01;;;;;;;6.72;2.67;;;;;;;;;;5050985;28;20044;-66
2022/04/03 07:12:32;;;;;;;5.45;1.83;;;;;;;;;;5050571;28;20393;-66
2022/04/03 07:15:04;;;;;;;5.22;2.67;;;;;;;;;;5050848;28;20049;-66
2022/04/03 07:17:36;;;;;;;8.40;2.33;;;;;;;;;;5050662;28;20432;-66
2022/04/03 07:20:07;;;;;;;5.53;2.53;;;;;;;;;;5063595;28;20108;-66
2022/04/03 07:22:38;;;;;;;6.47;2.80;;;;;;;;;;5014449;28;20067;-66
2022/04/03 07:25:10;;;;;;;6.00;3.40;;;;;;;;;;5063851;28;20215;-66
2022/04/03 07:27:42;;;;;;;6.50;2.72;;;;;;;;;;5063764;28;20040;-66
2022/04/03 07:30:13;;;;;;;6.30;2.88;;;;;;;;;;5015545;28;20056;-66
2022/04/03 07:32:43;;;;;;;6.43;2.88;;;;;;;;;;5068035;28;20061;-66
2022/04/03 07:35:14;;;;;;;6.18;4.30;;;;;;;;;;5034409;28;20057;-66
2022/04/03 07:37:44;;;;;;;6.05;3.10;;;;;;;;;;5067786;28;20056;-66
2022/04/03 07:40:15;;;;;;;5.78;2.78;;;;;;;;;;5067071;28;20052;-66
2022/04/03 07:42:46;;;;;;;5.32;2.92;;;;;;;;;;5050870;28;20075;-66
2022/04/03 07:45:17;;;;;;;4.85;2.47;;;;;;;;;;5067858;28;20059;-65
2022/04/03 07:47:50;;;;;;;6.38;2.60;;;;;;;;;;5066816;28;20044;-66
2022/04/03 07:50:21;;;;;;;3.55;1.73;;;;;;;;;;5018029;28;20045;-66
2022/04/03 07:52:52;;;;;;;4.78;2.50;;;;;;;;;;5017892;28;20500;-65
2022/04/03 07:55:23;;;;;;;5.55;2.20;;;;;;;;;;5050927;28;20439;-65
2022/04/03 07:57:54;;;;;;;6.15;2.95;;;;;;;;;;5057864;28;20061;-66
2022/04/03 08:00:24;;;;;;;4.93;2.10;;;;;;;;;;5050196;28;20648;-65
2022/04/03 08:02:55;;;;;;;6.10;3.25;;;;;;;;;;5049906;28;20049;-66
2022/04/03 08:05:26;;;;;;;8.18;3.72;;;;;;;;;;5050086;28;20048;-66
2022/04/03 08:07:56;;;;;;;5.18;2.85;;;;;;;;;;5050101;28;20048;-65
2022/04/03 08:10:27;;;;;;;4.00;2.00;;;;;;;;;;5048358;28;20045;-65
2022/04/03 08:12:57;;;;;;;5.40;2.33;;;;;;;;;;5049965;28;20420;-65
2022/04/03 08:15:28;;;;;;;6.72;3.13;;;;;;;;;;5066961;28;20416;-65
2022/04/03 08:17:59;;;;;;;6.50;3.40;;;;;;;;;;5067084;28;20064;-65
2022/04/03 08:20:29;;;;;;;5.90;3.00;;;;;;;;;;5067582;28;20079;-65
2022/04/03 08:23:03;;;;;;;7.25;3.17;;;;;;;;;;5067099;28;20060;-66
2022/04/03 08:25:36;;;;;;;6.97;3.50;;;;;;;;;;5066946;28;20052;-66
2022/04/03 08:28:10;;;;;;;5.13;2.65;;;;;;;;;;5050733;28;20055;-65
2022/04/03 08:30:40;;;;;;;6.22;4.25;;;;;;;;;;5067262;28;20593;-66
2022/04/03 08:33:10;;;;;;;5.90;2.75;;;;;;;;;;5017265;28;20056;-65
2022/04/03 08:35:41;;;;;;;5.78;2.92;;;;;;;;;;5047064;28;20056;-65
2022/04/03 08:38:13;;;;;;;5.32;2.97;;;;;;;;;;5013929;28;20053;-65
2022/04/03 08:40:44;;;;;;;6.40;2.90;;;;;;;;;;5046012;28;20056;-65
2022/04/03 08:43:15;;;;;;;8.15;2.70;;;;;;;;;;5047795;28;20049;-65
2022/04/03 08:45:46;;;;;;;7.60;3.00;;;;;;;;;;5050989;28;20084;-65
2022/04/03 08:48:22;;;;;;;5.93;2.63;;;;;;;;;;5050207;28;20061;-65
2022/04/03 08:50:55;;;;;;;6.07;3.08;;;;;;;;;;5051352;28;20056;-65
2022/04/03 08:53:28;;;;;;;7.32;3.33;;;;;;;;;;5038229;28;20516;-65
2022/04/03 08:55:59;;;;;;;6.65;2.72;;;;;;;;;;4981857;28;20076;-65
2022/04/03 08:58:30;;;;;;;5.60;3.13;;;;;;;;;;5030545;28;20097;-65
2022/04/03 09:01:02;;;;;;;6.82;3.20;;;;;;;;;;5031049;28;20058;-65
2022/04/03 09:03:33;;;;;;;6.43;2.95;;;;;;;;;;4990865;28;20163;-65
2022/04/03 09:06:32;;;;;;;5.60;2.88;;;;;;;;;;4975310;28;20085;-65
2022/04/03 09:09:04;;;;;;;4.95;2.78;;;;;;;;;;4914413;29;20060;-65
2022/04/03 09:11:34;;;;;;;9.13;2.80;;;;;;;;;;4914444;29;20532;-65
2022/04/03 09:14:12;;;;;;;4.30;2.20;;;;;;;;;;4913936;29;20067;-64
2022/04/03 09:16:42;;;;;;;4.97;2.70;;;;;;;;;;4913759;29;20056;-65
2022/04/03 09:19:13;;;;;;;6.18;2.55;;;;;;;;;;4914040;29;20048;-65
2022/04/03 09:21:45;;;;;;;4.80;2.30;;;;;;;;;;4914147;29;20052;-65
2022/04/03 09:24:15;;;;;;;5.40;2.95;;;;;;;;;;4897949;29;20090;-66
2022/04/03 09:26:57;;;;;;;5.03;3.08;;;;;;;;;;4895302;29;20065;-65
2022/04/03 09:29:28;;;;;;;6.75;3.10;;;;;;;;;;4895353;29;20052;-65
2022/04/03 09:32:00;;;;;;;5.13;2.25;;;;;;;;;;4848560;29;20440;-65
2022/04/03 09:34:33;;;;;;;4.80;2.72;;;;;;;;;;4894921;29;20060;-65
2022/04/03 09:37:06;;;;;;;;;;;;;;;;;;4895562;29;20091;-65
2022/04/03 09:39:38;;;;;;;4.18;2.20;;;;;;;;;;4879275;29;20331;-64
2022/04/03 09:42:12;;;;;;;5.00;2.22;;;;;;;;;;4945094;29;20078;-66
2022/04/03 09:44:45;;;;;;;3.97;2.40;;;;;;;;;;4962995;28;20157;-66
2022/04/03 09:47:33;;;;;;;4.82;2.05;;;;;;;;;;4973936;28;20054;-67
2022/04/03 09:50:06;;;;;;;3.17;1.90;;;;;;;;;;4990638;28;20062;-66
2022/04/03 09:52:41;;;;;;;4.07;1.90;;;;;;;;;;4966552;28;20051;-66
2022/04/03 09:55:19;;;;;;;4.25;1.60;;;;;;;;;;4946632;28;20101;-65
2022/04/03 09:58:12;;;;;;;4.47;1.70;;;;;;;;;;5007701;28;20057;-65
2022/04/03 10:00:47;;;;;;;2.88;1.45;;;;;;;;;;4958417;28;20049;-66
2022/04/03 10:03:18;;;;;;;5.53;1.65;;;;;;;;;;4947503;29;20078;-65
2022/04/03 10:05:49;;;;;;;2.72;1.70;;;;;;;;;;4885440;29;20055;-66
2022/04/03 10:08:21;;;;;;;2.58;1.23;;;;;;;;;;4931971;29;20471;-65
2022/04/03 10:10:52;;;;;;;4.07;2.08;;;;;;;;;;4932334;29;20055;-65
2022/04/03 10:13:24;;;;;;;5.25;1.80;;;;;;;;;;4890078;29;20059;-65
2022/04/03 10:15:54;;;;;;;4.28;1.75;;;;;;;;;;4951231;29;20059;-65
2022/04/03 10:18:25;;;;;;;6.70;2.85;;;;;;;;;;4951391;29;20578;-66
2022/04/03 10:20:56;;;;;;;3.78;2.38;;;;;;;;;;4919528;29;20563;-65
2022/04/03 10:23:29;;;;;;;5.43;2.75;;;;;;;;;;4950913;29;20078;-65
2022/04/03 10:26:03;;;;;;;4.25;2.33;;;;;;;;;;4935359;29;20067;-65
2022/04/03 10:28:35;;;;;;;6.53;2.00;;;;;;;;;;4948893;29;20070;-64
2022/04/03 10:31:09;;;;;;;3.92;1.98;;;;;;;;;;4946186;29;20062;-65
2022/04/03 10:33:44;;;;;;;3.72;2.08;;;;;;;;;;4934857;29;20063;-65
2022/04/03 10:36:34;;;;;;;4.70;2.00;;;;;;;;;;4935625;29;20067;-68
2022/04/03 10:39:10;;;;;;;3.28;1.95;;;;;;;;;;4974584;28;20058;-65
2022/04/03 10:41:43;;;;;;;6.25;2.25;;;;;;;;;;5024550;28;20048;-66
2022/04/03 10:44:19;;;;;;;3.55;2.15;;;;;;;;;;4994106;28;20064;-66
2022/04/03 10:47:05;;;;;;;3.05;1.98;;;;;;;;;;5008885;28;20054;-66
2022/04/03 10:50:00;;;;;;;3.03;1.92;;;;;;;;;;5008496;28;20068;-66
2022/04/03 10:52:37;;;;;;;3.83;2.35;;;;;;;;;;4975695;28;20584;-67
2022/04/03 10:55:30;;;;;;;2.78;1.90;;;;;;;;;;5008473;28;20084;-66
2022/04/03 10:58:04;;;;;;;5.30;1.92;;;;;;;;;;5008867;28;20057;-66
2022/04/03 11:00:38;;;;;;;3.58;1.80;;;;;;;;;;5008126;28;20451;-66
2022/04/03 11:03:14;;;;;;;3.33;2.00;;;;;;;;;;5015853;28;20496;-65
2022/04/03 11:05:46;;;;;;;3.15;2.42;;;;;;;;;;5047571;28;20078;-67
2022/04/03 11:08:19;;;;;;;6.03;1.95;;;;;;;;;;5047562;28;20048;-66
2022/04/03 11:10:59;;;;;;;;;;;;;;;;;;4998916;28;20053;-66
2022/04/03 11:13:30;;;;;;;2.30;1.50;;;;;;;;;;5047916;28;19920;-66
2022/04/03 11:16:08;;;;;;;2.60;1.25;;;;;;;;;;4998632;28;20060;-66
2022/04/03 11:18:48;;;;;;;4.80;1.80;;;;;;;;;;5048397;28;20164;-66
2022/04/03 11:21:30;;;;;;;3.13;1.17;;;;;;;;;;5030418;28;20052;-67
2022/04/03 11:24:10;;;;;;;4.30;2.13;;;;;;;;;;5048421;28;20087;-67
2022/04/03 11:26:42;;;;;;;1.60;1.10;;;;;;;;;;5064056;28;20052;-67
2022/04/03 11:29:12;;;;;;;3.13;1.30;;;;;;;;;;5070304;28;20048;-66
2022/04/03 11:31:43;;;;;;;1.38;0.75;;;;;;;;;;5070091;28;20076;-66
2022/04/03 11:34:14;;;;;;;3.55;1.15;;;;;;;;;;5070415;28;20044;-66
2022/04/03 11:36:45;;;;;;;2.15;1.23;;;;;;;;;;5027623;28;20049;-66
2022/04/03 11:39:15;;;;;;;1.23;0.93;;;;;;;;;;4978865;28;20421;-64
2022/04/03 11:41:53;;;;;;;1.38;0.93;;;;;;;;;;5027642;28;20049;-65
2022/04/03 11:44:26;;;;;;;2.13;0.85;;;;;;;;;;4978777;28;20436;-65
2022/04/03 11:46:57;;;;;;;2.58;1.20;;;;;;;;;;5027997;28;20049;-65
2022/04/03 11:49:29;;;;;;;1.80;1.00;;;;;;;;;;5027266;28;20054;-65
2022/04/03 11:52:11;;;;;;;2.35;1.20;;;;;;;;;;5027053;28;20053;-64
2022/04/03 11:54:58;;;;;;;1.40;0.80;;;;;;;;;;4994595;28;20060;-65
2022/04/03 11:57:30;;;;;;;2.83;1.20;;;;;;;;;;5027404;28;20092;-68
2022/04/03 12:00:00;;;;;;;6.13;1.30;;;;;;;;;;5027392;28;20050;-66
2022/04/03 12:02:43;;;;;;;2.28;1.50;;;;;;;;;;4982011;28;20053;-65
2022/04/03 12:05:20;;;;;;;1.15;0.82;;;;;;;;;;5027392;28;20053;-65
2022/04/03 12:07:51;;;;;;;2.65;2.10;;;;;;;;;;4978681;28;20064;-66
2022/04/03 12:10:27;;;;;;;1.25;0.90;;;;;;;;;;5010502;28;20057;-67
2022/04/03 12:13:05;;;;;;;7.43;4.60;;;;;;;;;;5010964;28;20054;-65
2022/04/03 12:15:38;;;;;;;8.32;4.32;;;;;;;;;;5045356;28;20068;-65
2022/04/03 12:18:26;;;;;;;;;;;;;;;;;;5046926;28;20057;-65
2022/04/03 12:20:58;;;;;;;2.08;1.35;;;;;;;;;;5047464;28;19921;-65
2022/04/03 12:23:28;;;;;;;1.75;0.93;;;;;;;;;;5046976;28;20492;-65
2022/04/03 12:25:59;;;;;;;2.72;1.25;;;;;;;;;;5015172;28;20579;-65
2022/04/03 12:28:31;;;;;;;4.60;1.88;;;;;;;;;;5046998;28;20045;-66
2022/04/03 12:31:02;;;;;;;6.53;2.13;;;;;;;;;;5046681;28;20052;-65
2022/04/03 12:33:36;;;;;;;11.52;8.30;;;;;;;;;;5046919;28;20072;-64
2022/04/03 12:36:09;;;;;;;2.53;1.83;;;;;;;;;;5047591;28;20068;-66
2022/04/03 12:38:50;;;;;;;3.47;1.20;;;;;;;;;;5027007;28;20524;-66
2022/04/03 12:41:21;;;;;;;1.80;1.25;;;;;;;;;;5027025;28;20072;-65
2022/04/03 12:43:55;;;;;;;1.63;1.10;;;;;;;;;;5026278;28;20053;-65
2022/04/03 12:46:37;;;;;;;3.85;1.10;;;;;;;;;;5010731;28;20060;-66
2022/04/03 12:49:18;;;;;;;2.22;1.25;;;;;;;;;;4993724;28;20064;-65
2022/04/03 12:51:49;;;;;;;1.45;1.15;;;;;;;;;;5027091;28;20049;-65
2022/04/03 12:54:40;;;;;;;2.03;1.40;;;;;;;;;;5046161;28;20538;-65
2022/04/03 13:00:17;;;;;;;0.85;0.70;;;;;;;;;;5029825;28;20528;-65
2022/04/03 13:02:50;;;;;;;1.63;0.88;;;;;;;;;;5013955;28;20431;-65
2022/04/03 13:05:20;;;;;;;1.83;0.90;;;;;;;;;;5030465;28;20049;-65
2022/04/03 13:07:51;;;;;;;2.92;1.38;;;;;;;;;;5046766;28;20061;-64
2022/04/03 13:10:22;;;;;;;2.55;1.70;;;;;;;;;;5047034;28;20072;-65
2022/04/03 13:12:53;;;;;;;3.35;1.80;;;;;;;;;;5026828;28;20056;-66
2022/04/03 13:15:23;;;;;;;4.15;2.47;;;;;;;;;;5029114;28;20061;-65
2022/04/03 13:17:53;;;;;;;2.85;2.05;;;;;;;;;;5033411;28;20514;-65
2022/04/03 13:20:25;;;;;;;5.00;2.85;;;;;;;;;;5066558;28;20056;-65
2022/04/03 13:22:56;;;;;;;9.45;5.75;;;;;;;;;;5066647;28;20052;-66
2022/04/03 13:25:26;;;;;;;13.68;7.03;;;;;;;;;;5026615;28;20054;-66
2022/04/03 13:27:57;;;;;;;17.88;9.50;;;;;;;;;;5011098;28;20054;-64
2022/04/03 13:30:34;;;;;;;6.10;3.78;;;;;;;;;;4980719;28;20053;-65
2022/04/03 13:33:04;;;;;;;2.85;1.40;;;;;;;;;;5030707;28;20057;-65
2022/04/03 13:35:37;;;;;;;4.47;2.70;;;;;;;;;;5030150;28;20521;-65
2022/04/03 13:38:09;;;;;;;2.60;1.52;;;;;;;;;;5030365;28;20060;-67
2022/04/03 13:40:41;;;;;;;1.98;1.10;;;;;;;;;;5029673;28;20429;-64
2022/04/03 13:43:12;;;;;;;2.85;0.93;;;;;;;;;;4997056;28;20171;-66
2022/04/03 13:46:00;;;;;;;2.00;1.30;;;;;;;;;;5030436;28;20049;-64
2022/04/03 13:48:37;;;;;;;3.67;2.42;;;;;;;;;;4964969;28;20049;-68
2022/04/03 13:51:15;;;;;;;3.15;1.88;;;;;;;;;;5029015;28;20616;-68
2022/04/03 13:53:46;;;;;;;3.30;2.25;;;;;;;;;;5030072;28;20057;-67
2022/04/03 13:56:19;;;;;;;4.28;2.60;;;;;;;;;;4974095;28;20054;-63
2022/04/03 13:58:50;;;;;;;6.30;4.07;;;;;;;;;;4990375;28;20065;-64
2022/04/03 14:01:21;;;;;;;3.55;1.98;;;;;;;;;;4942432;28;20050;-64
2022/04/03 14:03:53;;;;;;;1.63;0.90;;;;;;;;;;4973188;28;20058;-64
2022/04/03 14:06:24;;;;;;;33.42;13.32;;;;;;;;;;5029397;28;20152;-66
2022/04/03 14:08:54;;;;;;;3.95;2.00;;;;;;;;;;5029633;28;20189;-68
2022/04/03 14:11:25;;;;;;;2.10;1.38;;;;;;;;;;5029243;28;20041;-65
2022/04/03 14:13:56;;;;;;;3.25;1.60;;;;;;;;;;5029291;28;20049;-66
2022/04/03 14:16:26;;;;;;;3.08;1.30;;;;;;;;;;4965223;28;20057;-66
2022/04/03 14:18:57;;;;;;;4.65;1.83;;;;;;;;;;5029792;28;20421;-66
2022/04/03 14:21:29;;;;;;;3.67;2.40;;;;;;;;;;5029221;28;20049;-65
2022/04/03 14:24:00;;;;;;;4.70;2.45;;;;;;;;;;4996666;28;20077;-66
2022/04/03 14:26:32;;;;;;;3.35;1.95;;;;;;;;;;5029345;28;20061;-65
2022/04/03 14:29:03;;;;;;;5.15;2.85;;;;;;;;;;5029181;28;20480;-66
2022/04/03 14:31:34;;;;;;;1.25;0.50;;;;;;;;;;5029602;28;20405;-65
2022/04/03 14:34:05;;;;;;;0.80;0.77;;;;;;;;;;5040504;28;20057;-64
2022/04/03 14:36:36;;;;;;;1.67;0.80;;;;;;;;;;5032328;28;20052;-66
2022/04/03 14:39:06;;;;;;;1.17;0.73;;;;;;;;;;5048890;28;20674;-66
2022/04/03 14:41:37;;;;;;;6.10;2.45;;;;;;;;;;5047665;28;20057;-67
2022/04/03 14:44:08;;;;;;;2.03;1.38;;;;;;;;;;5008734;28;20061;-66
2022/04/03 14:46:38;;;;;;;2.80;1.90;;;;;;;;;;5022936;28;20060;-65
2022/04/03 14:49:09;;;;;;;6.25;3.00;;;;;;;;;;5015650;28;20053;-63
2022/04/03 14:51:42;;;;;;;5.45;2.42;;;;;;;;;;5048403;28;20071;-67
2022/04/03 14:54:13;;;;;;;3.65;1.73;;;;;;;;;;5048564;28;20527;-67
2022/04/03 14:56:44;;;;;;;1.90;1.10;;;;;;;;;;5048762;28;20057;-66
2022/04/03 14:59:14;;;;;;;4.70;1.58;;;;;;;;;;5048367;28;20080;-66
2022/04/03 15:01:45;;;;;;;6.47;2.50;;;;;;;;;;5015547;28;20053;-64
2022/04/03 15:04:15;;;;;;;3.65;2.05;;;;;;;;;;5048385;28;20049;-67
2022/04/03 15:06:47;;;;;;;2.67;1.83;;;;;;;;;;5048247;28;20064;-65
2022/04/03 15:09:31;;;;;;;3.50;1.35;;;;;;;;;;5032355;28;20057;-65
2022/04/03 15:12:04;;;;;;;5.70;2.28;;;;;;;;;;5015085;28;20049;-65
2022/04/03 15:14:35;;;;;;;6.30;3.53;;;;;;;;;;5015224;28;20074;-65
2022/04/03 15:17:07;;;;;;;6.05;2.97;;;;;;;;;;5032033;28;20051;-66
2022/04/03 15:19:37;;;;;;;1.95;1.02;;;;;;;;;;5048042;28;20060;-66